Time;durP1;ratioP1;P1;durP2;ratioP2;P2;SDS_P1;SDS_P2;PMS_P1;PMS_P2;Temp;Humidity;BMP_temperature;BMP_pressure;BME280_temperature;BME280_humidity;BME280_pressure;Samples;Min_cycle;Max_cycle;Signal;HPM_P1;HPM_P2
2021/09/06 00:01:18;;;;;;;2.45;1.20;;;43.20;15.50;;;;;;5122643;27;20059;-55
2021/09/06 00:03:44;;;;;;;3.53;1.38;;;43.30;15.70;;;;;;5118476;27;20052;-54
2021/09/06 00:06:11;;;;;;;5.28;1.20;;;43.20;15.80;;;;;;5117797;27;20114;-55
2021/09/06 00:08:37;;;;;;;3.15;1.38;;;43.10;15.70;;;;;;5112653;27;20084;-56
2021/09/06 00:11:11;;;;;;;2.65;1.20;;;43.00;15.80;;;;;;5120847;27;20184;-56
2021/09/06 00:13:40;;;;;;;2.08;1.33;;;43.00;16.00;;;;;;5121426;27;20087;-58
2021/09/06 00:16:07;;;;;;;2.88;1.10;;;42.80;15.60;;;;;;5117490;27;20532;-55
2021/09/06 00:18:34;;;;;;;3.47;1.30;;;42.80;16.00;;;;;;5117483;27;20069;-55
2021/09/06 00:21:06;;;;;;;3.45;1.30;;;42.80;14.20;;;;;;5114747;27;20453;-56
2021/09/06 00:23:34;;;;;;;4.03;1.05;;;42.80;15.20;;;;;;5112245;27;20083;-57
2021/09/06 00:26:01;;;;;;;3.42;1.23;;;42.60;15.10;;;;;;5112570;27;20112;-56
2021/09/06 00:28:27;;;;;;;5.72;1.23;;;42.60;14.90;;;;;;5114817;27;20067;-51
2021/09/06 00:30:54;;;;;;;2.13;1.40;;;42.50;15.00;;;;;;5114641;27;20061;-55
2021/09/06 00:33:21;;;;;;;7.28;2.55;;;42.40;15.80;;;;;;5119860;27;20088;-55
2021/09/06 00:35:48;;;;;;;4.05;1.80;;;42.30;15.60;;;;;;5118720;27;20177;-59
2021/09/06 00:38:17;;;;;;;3.67;2.00;;;42.20;16.80;;;;;;5111811;27;20115;-56
2021/09/06 00:40:50;;;;;;;3.25;1.40;;;42.10;17.10;;;;;;5115127;27;20079;-60
2021/09/06 00:43:17;;;;;;;2.97;1.45;;;42.10;16.90;;;;;;5115428;27;20075;-56
2021/09/06 00:45:47;;;;;;;2.17;1.65;;;42.00;17.70;;;;;;5114653;27;20139;-56
2021/09/06 00:48:17;;;;;;;4.13;1.58;;;41.90;17.90;;;;;;5114137;27;20527;-54
2021/09/06 00:50:44;;;;;;;8.85;1.75;;;41.90;15.50;;;;;;5112511;27;20555;-55
2021/09/06 00:53:11;;;;;;;4.70;1.80;;;41.90;18.00;;;;;;5113873;27;20101;-57
2021/09/06 00:55:37;;;;;;;8.77;1.50;;;41.70;18.00;;;;;;5116847;27;20099;-57
2021/09/06 00:58:04;;;;;;;2.10;1.48;;;41.60;18.40;;;;;;5116104;27;20616;-57
2021/09/06 01:00:31;;;;;;;4.13;2.05;;;41.50;18.70;;;;;;5116861;27;20403;-57
2021/09/06 01:02:58;;;;;;;5.78;1.40;;;41.50;18.60;;;;;;5098832;27;20061;-56
2021/09/06 01:05:24;;;;;;;3.20;1.55;;;41.50;18.30;;;;;;5116604;27;20213;-58
2021/09/06 01:07:51;;;;;;;4.95;1.80;;;41.30;18.30;;;;;;5110525;27;20064;-57
2021/09/06 01:10:17;;;;;;;6.72;1.63;;;41.30;18.30;;;;;;5117538;27;20073;-54
2021/09/06 01:12:44;;;;;;;4.45;1.20;;;41.20;17.60;;;;;;5095813;27;20077;-57
2021/09/06 01:15:12;;;;;;;3.20;1.20;;;41.10;17.00;;;;;;5117372;27;20115;-56
2021/09/06 01:17:39;;;;;;;1.48;1.10;;;41.00;17.10;;;;;;5115190;27;20069;-54
2021/09/06 01:20:07;;;;;;;1.88;1.20;;;40.90;17.10;;;;;;5118620;27;20210;-57
2021/09/06 01:22:34;;;;;;;3.47;1.48;;;40.80;16.60;;;;;;5095307;27;20457;-57
2021/09/06 01:25:01;;;;;;;4.13;1.30;;;40.80;18.20;;;;;;5096682;28;20077;-56
2021/09/06 01:27:27;;;;;;;3.65;1.35;;;40.70;18.40;;;;;;5111375;27;20076;-55
2021/09/06 01:29:54;;;;;;;3.88;1.45;;;40.50;18.70;;;;;;5121369;27;20083;-54
2021/09/06 01:32:21;;;;;;;2.85;1.50;;;40.30;19.30;;;;;;5111993;27;20083;-57
2021/09/06 01:34:47;;;;;;;3.80;1.40;;;40.20;18.00;;;;;;5113643;27;20120;-56
2021/09/06 01:37:14;;;;;;;3.90;1.60;;;40.10;18.80;;;;;;5118678;27;20158;-57
2021/09/06 01:39:41;;;;;;;6.28;1.30;;;40.10;19.40;;;;;;5112663;27;20110;-57
2021/09/06 01:42:07;;;;;;;4.68;1.50;;;39.90;18.00;;;;;;5117417;27;20080;-57
2021/09/06 01:44:34;;;;;;;7.50;1.90;;;39.80;19.70;;;;;;5110779;27;20068;-57
2021/09/06 01:47:00;;;;;;;7.72;1.92;;;39.70;19.30;;;;;;5114117;27;20084;-53
2021/09/06 01:49:27;;;;;;;7.10;1.75;;;39.60;19.60;;;;;;5111919;27;20545;-57
2021/09/06 01:51:53;;;;;;;6.22;4.22;;;39.50;19.60;;;;;;5116673;27;20427;-56
2021/09/06 01:54:20;;;;;;;7.07;3.60;;;39.50;19.70;;;;;;5096840;28;20076;-56
2021/09/06 01:56:46;;;;;;;5.30;2.67;;;39.40;18.80;;;;;;5113088;28;20099;-57
2021/09/06 01:59:13;;;;;;;3.53;2.22;;;39.20;18.60;;;;;;5121695;28;20121;-57
2021/09/06 02:01:39;;;;;;;7.35;1.83;;;39.20;18.30;;;;;;5112203;28;20076;-57
2021/09/06 02:04:06;;;;;;;8.48;1.70;;;39.10;18.50;;;;;;5116588;28;20071;-57
2021/09/06 02:06:32;;;;;;;3.67;1.55;;;39.00;19.80;;;;;;5114441;28;20468;-57
2021/09/06 02:08:59;;;;;;;12.93;2.25;;;39.00;19.10;;;;;;5114669;28;20143;-56
2021/09/06 02:11:26;;;;;;;12.13;2.15;;;38.90;19.70;;;;;;5114444;28;20146;-58
2021/09/06 02:13:53;;;;;;;11.32;2.60;;;38.80;20.20;;;;;;5111560;28;20064;-57
2021/09/06 02:16:20;;;;;;;10.02;2.30;;;38.70;19.70;;;;;;5113329;28;20120;-59
2021/09/06 02:18:46;;;;;;;12.23;2.80;;;38.60;20.40;;;;;;5117836;28;20068;-59
2021/09/06 02:21:13;;;;;;;7.32;2.78;;;38.60;20.50;;;;;;5115993;28;20071;-57
2021/09/06 02:23:39;;;;;;;9.07;2.80;;;38.50;20.30;;;;;;5115431;27;20079;-57
2021/09/06 02:26:06;;;;;;;9.45;2.80;;;38.40;21.50;;;;;;5118117;27;20416;-58
2021/09/06 02:28:32;;;;;;;10.73;2.53;;;38.30;21.50;;;;;;5116429;27;20179;-56
2021/09/06 02:30:59;;;;;;;11.02;2.53;;;38.30;22.00;;;;;;5116821;27;20071;-57
2021/09/06 02:33:25;;;;;;;6.38;1.98;;;38.20;21.50;;;;;;5116286;27;20116;-57
2021/09/06 02:35:52;;;;;;;8.45;2.20;;;38.10;21.30;;;;;;5101626;27;20096;-57
2021/09/06 02:38:19;;;;;;;10.57;2.45;;;38.00;22.10;;;;;;5120302;27;20068;-55
2021/09/06 02:40:45;;;;;;;11.77;2.67;;;38.00;22.80;;;;;;5120410;27;20106;-63
2021/09/06 02:43:12;;;;;;;17.10;2.67;;;37.90;23.00;;;;;;5117762;27;20079;-53
2021/09/06 02:45:38;;;;;;;16.30;3.40;;;37.80;23.00;;;;;;5120266;27;20079;-56
2021/09/06 02:48:05;;;;;;;12.70;3.63;;;37.80;23.30;;;;;;5116586;27;20067;-66
2021/09/06 02:50:32;;;;;;;12.35;2.58;;;37.70;23.30;;;;;;5118107;27;20075;-65
2021/09/06 02:52:59;;;;;;;12.48;2.85;;;37.60;23.40;;;;;;5100837;27;20196;-65
2021/09/06 02:55:25;;;;;;;13.80;3.15;;;37.60;23.00;;;;;;5119781;27;20111;-64
2021/09/06 02:57:52;;;;;;;7.47;2.50;;;37.50;23.30;;;;;;5121713;27;20064;-64
2021/09/06 03:00:18;;;;;;;9.38;3.15;;;37.40;23.20;;;;;;5120163;27;20432;-64
2021/09/06 03:02:45;;;;;;;8.65;2.42;;;37.40;23.50;;;;;;5120120;27;20072;-64
2021/09/06 03:05:11;;;;;;;10.35;2.63;;;37.30;23.60;;;;;;5120083;27;20175;-65
2021/09/06 03:07:38;;;;;;;8.48;2.28;;;37.20;23.50;;;;;;5117370;27;20093;-64
2021/09/06 03:10:05;;;;;;;9.32;2.53;;;37.20;23.70;;;;;;5116767;27;20084;-65
2021/09/06 03:12:32;;;;;;;13.20;2.70;;;37.00;23.40;;;;;;5114976;27;20212;-65
2021/09/06 03:14:59;;;;;;;24.27;3.63;;;37.00;24.00;;;;;;5122270;27;20176;-65
2021/09/06 03:17:25;;;;;;;12.05;3.17;;;37.00;24.60;;;;;;5118574;27;20083;-65
2021/09/06 03:19:52;;;;;;;14.93;3.17;;;37.00;24.50;;;;;;5118697;27;20085;-65
2021/09/06 03:22:19;;;;;;;22.23;3.40;;;36.90;24.70;;;;;;5118005;27;20164;-65
2021/09/06 03:24:45;;;;;;;16.40;3.42;;;36.90;25.20;;;;;;5118580;27;20110;-66
2021/09/06 03:27:13;;;;;;;16.15;4.00;;;36.80;25.00;;;;;;5117370;27;20072;-67
2021/09/06 03:29:40;;;;;;;19.88;3.80;;;36.80;24.10;;;;;;5118525;27;20561;-66
2021/09/06 03:32:06;;;;;;;15.32;3.92;;;36.80;24.10;;;;;;5119490;27;20411;-66
2021/09/06 03:34:33;;;;;;;26.65;4.90;;;36.80;24.00;;;;;;5100998;27;20116;-66
2021/09/06 03:36:59;;;;;;;42.58;7.72;;;36.80;24.70;;;;;;5114827;27;20686;-67
2021/09/06 03:39:26;;;;;;;35.38;7.18;;;36.80;23.70;;;;;;5116946;27;20126;-66
2021/09/06 03:41:53;;;;;;;63.92;8.60;;;36.80;23.30;;;;;;5098282;28;20123;-67
2021/09/06 03:44:19;;;;;;;68.85;9.77;;;36.80;23.10;;;;;;5121675;27;20121;-65
2021/09/06 03:46:46;;;;;;;60.88;9.45;;;36.80;22.90;;;;;;5120045;27;20090;-67
2021/09/06 03:49:13;;;;;;;61.63;8.30;;;36.90;23.50;;;;;;5117980;27;20141;-68
2021/09/06 03:51:39;;;;;;;50.65;7.13;;;37.10;25.70;;;;;;5117911;27;20381;-67
2021/09/06 03:54:06;;;;;;;45.67;5.82;;;37.20;27.30;;;;;;5117477;27;20166;-68
2021/09/06 03:56:32;;;;;;;26.35;4.82;;;37.20;28.30;;;;;;5116837;27;20153;-64
2021/09/06 03:58:59;;;;;;;28.83;4.63;;;37.30;30.60;;;;;;5119552;27;20067;-64
2021/09/06 04:01:28;;;;;;;40.70;5.25;;;37.30;32.10;;;;;;5119971;27;20593;-67
2021/09/06 04:03:55;;;;;;;29.65;4.57;;;37.30;33.20;;;;;;5099463;27;20079;-64
2021/09/06 04:06:21;;;;;;;18.45;4.47;;;37.30;34.30;;;;;;5119834;27;20179;-66
2021/09/06 04:08:48;;;;;;;28.80;5.82;;;37.30;34.80;;;;;;5099689;28;20076;-65
2021/09/06 04:11:14;;;;;;;30.75;5.28;;;37.20;36.00;;;;;;5118302;27;20074;-65
2021/09/06 04:13:43;;;;;;;43.03;5.70;;;37.20;36.20;;;;;;5120826;27;20151;-64
2021/09/06 04:16:10;;;;;;;30.52;5.03;;;37.10;36.80;;;;;;5118746;27;20096;-66
2021/09/06 04:18:36;;;;;;;35.40;5.63;;;37.00;37.50;;;;;;5119133;27;20076;-66
2021/09/06 04:21:04;;;;;;;36.25;5.00;;;36.90;38.00;;;;;;5116712;27;20132;-66
2021/09/06 04:23:32;;;;;;;20.90;4.43;;;36.90;38.80;;;;;;5099449;27;20128;-67
2021/09/06 04:26:00;;;;;;;21.92;4.20;;;36.80;39.70;;;;;;5098258;28;20482;-66
2021/09/06 04:28:28;;;;;;;25.10;4.10;;;36.70;40.30;;;;;;5084465;27;20555;-66
2021/09/06 04:30:56;;;;;;;16.40;3.63;;;36.70;40.70;;;;;;5098620;27;20073;-71
2021/09/06 04:33:24;;;;;;;23.58;3.83;;;36.70;41.40;;;;;;5115845;27;20128;-65
2021/09/06 04:35:52;;;;;;;18.50;3.65;;;36.60;41.70;;;;;;5097531;27;20092;-65
2021/09/06 04:38:19;;;;;;;28.77;4.32;;;36.50;42.40;;;;;;5117048;27;20099;-65
2021/09/06 04:40:46;;;;;;;15.80;3.40;;;36.40;43.00;;;;;;5121464;27;20071;-67
2021/09/06 04:43:13;;;;;;;14.50;3.13;;;36.30;43.50;;;;;;5116011;27;20068;-70
2021/09/06 04:45:40;;;;;;;18.27;3.60;;;36.30;44.00;;;;;;5096285;27;20083;-65
2021/09/06 04:48:07;;;;;;;23.55;3.45;;;36.20;44.20;;;;;;5115699;27;20084;-68
2021/09/06 04:50:33;;;;;;;18.33;3.58;;;36.20;44.40;;;;;;5116686;27;20076;-65
2021/09/06 04:53:00;;;;;;;17.58;3.42;;;36.20;44.70;;;;;;5116000;27;20111;-66
2021/09/06 04:55:26;;;;;;;16.13;3.35;;;36.20;44.80;;;;;;5114126;27;20103;-66
2021/09/06 04:57:53;;;;;;;24.67;3.72;;;36.10;44.80;;;;;;5115815;27;20490;-65
2021/09/06 05:00:19;;;;;;;17.15;3.13;;;36.00;44.70;;;;;;5117020;27;20080;-66
2021/09/06 05:02:46;;;;;;;15.05;3.05;;;36.00;44.70;;;;;;5115081;27;20440;-66
2021/09/06 05:05:12;;;;;;;18.88;3.55;;;36.00;44.70;;;;;;5118884;27;20081;-66
2021/09/06 05:07:39;;;;;;;12.98;3.20;;;36.00;44.60;;;;;;5119247;27;20077;-66
2021/09/06 05:10:06;;;;;;;17.50;3.47;;;36.00;44.70;;;;;;5112041;27;20421;-65
2021/09/06 05:12:32;;;;;;;12.82;3.13;;;35.90;44.70;;;;;;5118893;27;20446;-66
2021/09/06 05:14:59;;;;;;;11.38;2.90;;;35.90;44.50;;;;;;5115429;27;20080;-64
2021/09/06 05:17:25;;;;;;;12.38;3.47;;;35.90;44.30;;;;;;5114923;27;20072;-66
2021/09/06 05:19:52;;;;;;;21.55;3.42;;;35.80;44.20;;;;;;5112787;27;20468;-65
2021/09/06 05:22:18;;;;;;;18.35;3.35;;;35.80;44.10;;;;;;5116807;27;20485;-64
2021/09/06 05:24:45;;;;;;;20.42;3.50;;;35.70;44.50;;;;;;5117893;27;20068;-64
2021/09/06 05:27:11;;;;;;;13.80;2.67;;;35.60;44.60;;;;;;5112544;27;20094;-64
2021/09/06 05:29:38;;;;;;;12.45;2.95;;;35.60;45.10;;;;;;5115590;27;20459;-64
2021/09/06 05:32:05;;;;;;;15.68;3.30;;;35.40;45.40;;;;;;5101228;27;20068;-65
2021/09/06 05:34:32;;;;;;;17.90;4.90;;;35.40;45.70;;;;;;5096641;27;20119;-65
2021/09/06 05:36:58;;;;;;;21.48;6.03;;;35.30;45.60;;;;;;5116139;27;20099;-67
2021/09/06 05:39:25;;;;;;;21.80;8.05;;;35.30;45.50;;;;;;5112864;27;20087;-65
2021/09/06 05:41:51;;;;;;;14.70;5.40;;;35.30;45.30;;;;;;5112336;27;20432;-65
2021/09/06 05:44:18;;;;;;;21.35;5.38;;;35.20;45.10;;;;;;5115971;27;20535;-65
2021/09/06 05:46:45;;;;;;;27.38;5.10;;;35.20;44.60;;;;;;5119634;27;20076;-65
2021/09/06 05:49:13;;;;;;;20.38;6.90;;;35.20;43.90;;;;;;5114091;27;20509;-64
2021/09/06 05:51:39;;;;;;;26.40;10.00;;;35.10;43.80;;;;;;5098030;28;20135;-65
2021/09/06 05:54:06;;;;;;;42.95;12.15;;;35.10;43.50;;;;;;5111489;28;20205;-64
2021/09/06 05:56:33;;;;;;;30.60;12.50;;;35.10;43.10;;;;;;5096286;28;20472;-65
2021/09/06 05:58:59;;;;;;;32.90;11.05;;;35.10;43.00;;;;;;5114804;28;20068;-64
2021/09/06 06:01:26;;;;;;;26.75;9.85;;;35.10;42.80;;;;;;5110257;28;20072;-65
2021/09/06 06:03:53;;;;;;;30.10;10.02;;;35.10;42.30;;;;;;5114814;28;20064;-64
2021/09/06 06:06:19;;;;;;;38.08;8.43;;;35.10;42.50;;;;;;5097040;28;20083;-64
2021/09/06 06:08:46;;;;;;;26.63;7.60;;;35.00;42.50;;;;;;5091189;28;20072;-65
2021/09/06 06:11:12;;;;;;;21.90;7.32;;;35.00;41.60;;;;;;5110681;28;20072;-65
2021/09/06 06:13:39;;;;;;;29.50;7.43;;;35.10;41.30;;;;;;5114099;28;20147;-64
2021/09/06 06:16:06;;;;;;;20.75;7.30;;;35.10;41.20;;;;;;5113028;28;20096;-65
2021/09/06 06:18:33;;;;;;;18.67;7.57;;;35.00;41.00;;;;;;5116475;28;20095;-65
2021/09/06 06:21:00;;;;;;;18.38;7.55;;;34.90;41.10;;;;;;5111141;28;20076;-65
2021/09/06 06:23:26;;;;;;;24.20;7.82;;;34.90;41.40;;;;;;5113902;28;20075;-65
2021/09/06 06:25:53;;;;;;;20.10;7.82;;;34.80;41.10;;;;;;5116193;28;20068;-65
2021/09/06 06:28:19;;;;;;;31.98;8.45;;;34.80;41.20;;;;;;5112963;28;20083;-65
2021/09/06 06:30:46;;;;;;;22.60;7.68;;;34.80;40.70;;;;;;5113498;28;20080;-64
2021/09/06 06:33:12;;;;;;;19.83;7.35;;;34.80;40.60;;;;;;5112152;28;20139;-64
2021/09/06 06:35:39;;;;;;;19.23;6.03;;;34.80;40.60;;;;;;5114658;28;20092;-64
2021/09/06 06:38:06;;;;;;;21.70;5.03;;;34.80;40.40;;;;;;5113783;28;20258;-65
2021/09/06 06:40:32;;;;;;;20.92;4.45;;;34.90;40.40;;;;;;5116460;28;20068;-65
2021/09/06 06:42:59;;;;;;;18.48;4.05;;;34.90;40.10;;;;;;5112419;28;20072;-64
2021/09/06 06:45:25;;;;;;;14.43;3.70;;;34.90;40.80;;;;;;5113240;28;20077;-57
2021/09/06 06:47:52;;;;;;;11.85;2.88;;;34.90;41.10;;;;;;5113734;28;20091;-56
2021/09/06 06:50:20;;;;;;;16.52;3.13;;;34.80;41.30;;;;;;5115971;28;20120;-56
2021/09/06 06:52:47;;;;;;;13.60;3.22;;;34.90;42.10;;;;;;5112488;28;21037;-55
2021/09/06 06:55:14;;;;;;;8.00;3.35;;;34.90;42.40;;;;;;5115173;28;23045;-57
2021/09/06 06:57:40;;;;;;;15.27;4.60;;;34.80;43.30;;;;;;5114771;28;20068;-56
2021/09/06 07:00:08;;;;;;;12.25;4.88;;;34.80;44.10;;;;;;5113575;28;20076;-57
2021/09/06 07:02:34;;;;;;;13.88;4.53;;;34.70;45.10;;;;;;5109032;28;20151;-55
2021/09/06 07:05:01;;;;;;;14.27;4.57;;;34.70;45.90;;;;;;5115952;28;20764;-55
2021/09/06 07:07:28;;;;;;;12.18;4.30;;;34.60;46.40;;;;;;5119030;28;20072;-56
2021/09/06 07:09:54;;;;;;;7.68;3.10;;;34.60;47.10;;;;;;5112477;28;20500;-56
2021/09/06 07:12:21;;;;;;;10.05;2.80;;;34.60;47.50;;;;;;5116458;27;20063;-54
2021/09/06 07:14:47;;;;;;;12.05;2.63;;;34.60;47.50;;;;;;5114890;27;20080;-56
2021/09/06 07:17:14;;;;;;;13.55;2.90;;;34.50;47.70;;;;;;5119102;27;20084;-55
2021/09/06 07:19:41;;;;;;;6.55;2.15;;;34.40;48.60;;;;;;5116161;27;20444;-55
2021/09/06 07:22:08;;;;;;;8.10;2.45;;;34.40;49.60;;;;;;5117480;27;20075;-53
2021/09/06 07:24:34;;;;;;;10.80;2.65;;;34.20;51.10;;;;;;5116537;27;20485;-54
2021/09/06 07:27:01;;;;;;;9.57;2.67;;;34.10;51.70;;;;;;5117473;27;20151;-53
2021/09/06 07:29:27;;;;;;;11.07;2.45;;;33.80;52.30;;;;;;5115082;27;20522;-53
2021/09/06 07:31:54;;;;;;;13.65;2.92;;;33.70;52.70;;;;;;5098664;27;20548;-54
2021/09/06 07:34:20;;;;;;;10.93;2.60;;;33.80;52.80;;;;;;5115315;27;20111;-57
2021/09/06 07:36:47;;;;;;;12.07;2.38;;;33.70;52.80;;;;;;5114971;27;20100;-57
2021/09/06 07:39:16;;;;;;;12.60;2.20;;;33.70;52.70;;;;;;5112176;27;20076;-57
2021/09/06 07:41:44;;;;;;;10.43;2.38;;;33.60;52.40;;;;;;5115774;27;20424;-56
2021/09/06 07:44:11;;;;;;;10.30;2.38;;;33.60;51.60;;;;;;5112846;27;20198;-57
2021/09/06 07:46:38;;;;;;;10.63;2.60;;;33.60;51.10;;;;;;5118123;27;20080;-56
2021/09/06 07:49:05;;;;;;;21.25;2.90;;;33.70;51.10;;;;;;5116450;27;20068;-57
2021/09/06 07:51:32;;;;;;;9.55;2.50;;;33.70;50.00;;;;;;5119109;27;20086;-57
2021/09/06 07:54:00;;;;;;;15.85;2.47;;;33.70;49.50;;;;;;5096559;28;20072;-57
2021/09/06 07:56:27;;;;;;;15.57;2.58;;;33.60;49.50;;;;;;5117059;27;20095;-57
2021/09/06 07:58:53;;;;;;;17.98;2.67;;;33.70;49.30;;;;;;5114613;27;20072;-55
2021/09/06 08:01:20;;;;;;;9.93;3.15;;;33.70;48.70;;;;;;5116437;27;20087;-56
2021/09/06 08:03:46;;;;;;;12.20;3.00;;;33.70;48.20;;;;;;5116690;27;20068;-57
2021/09/06 08:06:13;;;;;;;21.58;3.45;;;33.70;47.70;;;;;;5119249;27;20084;-57
2021/09/06 08:08:39;;;;;;;26.92;2.95;;;33.70;49.40;;;;;;5113919;27;20068;-56
2021/09/06 08:11:05;;;;;;;29.70;3.15;;;33.70;49.50;;;;;;5112124;27;20076;-55
2021/09/06 08:13:32;;;;;;;17.65;2.90;;;33.50;52.00;;;;;;5119278;27;20117;-57
2021/09/06 08:15:58;;;;;;;20.75;2.85;;;33.30;53.80;;;;;;5110106;27;20099;-57
2021/09/06 08:18:25;;;;;;;22.08;3.45;;;33.30;55.10;;;;;;5114116;27;20908;-56
2021/09/06 08:20:51;;;;;;;22.90;2.88;;;33.10;56.30;;;;;;5118475;27;20088;-57
2021/09/06 08:23:18;;;;;;;18.48;3.10;;;33.00;57.40;;;;;;5114710;27;20117;-57
2021/09/06 08:25:44;;;;;;;17.02;3.15;;;33.00;58.10;;;;;;5094869;28;20547;-57
2021/09/06 08:28:11;;;;;;;19.35;2.88;;;32.90;58.90;;;;;;5113191;27;20090;-57
2021/09/06 08:30:38;;;;;;;23.85;3.47;;;32.80;59.90;;;;;;5111478;27;20159;-57
2021/09/06 08:33:04;;;;;;;35.38;3.70;;;32.70;61.50;;;;;;5112399;27;20187;-57
2021/09/06 08:35:31;;;;;;;23.70;3.70;;;32.60;63.00;;;;;;5111618;27;20127;-57
2021/09/06 08:37:57;;;;;;;22.48;3.75;;;32.60;64.50;;;;;;5114168;27;20072;-57
2021/09/06 08:40:24;;;;;;;42.17;4.93;;;32.50;67.30;;;;;;5117658;27;20132;-56
2021/09/06 08:42:52;;;;;;;27.95;3.78;;;32.50;68.80;;;;;;5111204;27;20076;-56
2021/09/06 08:45:20;;;;;;;29.00;4.90;;;32.40;70.80;;;;;;5113903;27;20080;-57
2021/09/06 08:47:46;;;;;;;30.13;4.40;;;32.30;72.20;;;;;;5112267;27;20083;-56
2021/09/06 08:50:13;;;;;;;30.45;4.30;;;32.30;73.60;;;;;;5112497;27;20132;-56
2021/09/06 08:52:40;;;;;;;22.63;4.60;;;32.20;74.70;;;;;;5116352;27;20421;-57
2021/09/06 08:55:08;;;;;;;22.02;4.45;;;32.10;75.60;;;;;;5115230;27;20111;-57
2021/09/06 08:57:35;;;;;;;16.95;4.82;;;32.10;76.00;;;;;;5116817;27;20538;-53
2021/09/06 09:00:04;;;;;;;24.85;4.93;;;32.10;76.50;;;;;;5112443;27;20429;-57
2021/09/06 09:02:33;;;;;;;21.67;5.38;;;32.00;77.20;;;;;;5111795;27;20084;-57
2021/09/06 09:05:07;;;;;;;16.10;4.90;;;32.10;77.40;;;;;;5116732;27;20080;-55
2021/09/06 09:07:35;;;;;;;19.80;5.35;;;32.10;77.80;;;;;;5114558;27;20076;-57
2021/09/06 09:10:04;;;;;;;31.55;6.03;;;32.10;78.00;;;;;;5117129;27;20544;-54
2021/09/06 09:12:30;;;;;;;33.22;6.00;;;32.10;78.40;;;;;;5113398;27;20084;-55
2021/09/06 09:15:00;;;;;;;33.80;6.20;;;32.00;78.10;;;;;;5113448;27;20144;-56
2021/09/06 09:17:27;;;;;;;33.03;5.72;;;31.90;78.40;;;;;;5118765;27;20486;-55
2021/09/06 09:19:58;;;;;;;36.05;6.10;;;31.90;78.50;;;;;;5112915;27;20068;-56
2021/09/06 09:22:36;;;;;;;33.35;6.22;;;31.90;78.20;;;;;;5113385;27;20079;-58
2021/09/06 09:25:07;;;;;;;31.70;5.00;;;31.90;77.90;;;;;;5113444;27;20107;-58
2021/09/06 09:27:41;;;;;;;26.02;5.55;;;31.90;77.90;;;;;;5114065;27;20159;-58
2021/09/06 09:30:22;;;;;;;41.08;7.53;;;31.80;77.70;;;;;;5113044;27;20067;-57
2021/09/06 09:33:07;;;;;;;27.75;7.50;;;31.80;77.90;;;;;;5112974;27;20161;-57
2021/09/06 09:35:34;;;;;;;30.90;7.50;;;31.80;77.90;;;;;;5113484;27;20126;-56
2021/09/06 09:38:12;;;;;;;26.23;7.43;;;31.80;78.10;;;;;;5110930;27;20160;-57
2021/09/06 09:40:41;;;;;;;21.48;5.55;;;31.80;78.10;;;;;;5115514;27;20079;-57
2021/09/06 09:43:09;;;;;;;19.48;4.78;;;31.70;78.50;;;;;;5112655;27;20471;-57
2021/09/06 09:45:37;;;;;;;19.75;4.78;;;31.70;79.20;;;;;;5114622;27;20071;-57
2021/09/06 09:48:06;;;;;;;18.15;4.22;;;31.70;80.10;;;;;;5114622;27;20079;-57
2021/09/06 09:50:35;;;;;;;22.48;5.03;;;31.60;81.30;;;;;;5112184;28;20099;-54
2021/09/06 09:53:02;;;;;;;20.10;4.50;;;31.60;82.80;;;;;;5111611;28;20475;-57
2021/09/06 09:55:34;;;;;;;24.58;4.65;;;31.60;84.00;;;;;;5114421;27;20162;-57
2021/09/06 09:58:01;;;;;;;20.38;4.85;;;31.60;84.70;;;;;;5112865;27;20079;-57
2021/09/06 10:00:27;;;;;;;22.75;4.65;;;31.50;86.00;;;;;;5114563;28;20087;-57
2021/09/06 10:02:57;;;;;;;18.52;4.72;;;31.50;86.70;;;;;;5114296;28;20206;-57
2021/09/06 10:05:33;;;;;;;26.85;5.50;;;31.40;87.80;;;;;;5116719;28;20144;-57
2021/09/06 10:08:03;;;;;;;17.77;4.63;;;31.50;88.20;;;;;;5110259;28;20520;-57
2021/09/06 10:10:37;;;;;;;17.73;4.80;;;31.40;88.60;;;;;;5112593;28;20107;-57
2021/09/06 10:13:06;;;;;;;21.23;5.25;;;31.40;89.30;;;;;;5077856;28;20076;-57
2021/09/06 10:15:33;;;;;;;20.20;4.57;;;31.50;89.90;;;;;;5111961;28;20095;-56
2021/09/06 10:18:23;;;;;;;19.33;4.53;;;31.50;89.90;;;;;;5110527;28;20108;-56
2021/09/06 10:20:52;;;;;;;19.10;4.88;;;31.50;90.20;;;;;;5099192;28;20478;-55
2021/09/06 10:23:19;;;;;;;15.50;4.82;;;31.40;90.70;;;;;;5118217;28;20083;-53
2021/09/06 10:25:46;;;;;;;18.98;4.93;;;31.40;91.10;;;;;;5115032;28;20079;-55
2021/09/06 10:28:14;;;;;;;16.33;4.57;;;31.40;91.40;;;;;;5118130;28;20088;-55
2021/09/06 10:30:47;;;;;;;19.80;4.90;;;31.40;91.50;;;;;;5095449;28;20137;-57
2021/09/06 10:33:31;;;;;;;17.45;4.88;;;31.40;91.80;;;;;;5115959;28;20116;-57
2021/09/06 10:36:12;;;;;;;17.45;4.78;;;31.40;92.00;;;;;;5112391;28;20103;-56
2021/09/06 10:38:45;;;;;;;19.73;5.00;;;31.30;92.30;;;;;;5112428;28;20076;-57
2021/09/06 10:41:14;;;;;;;19.65;5.25;;;31.30;92.80;;;;;;5111742;28;20581;-57
2021/09/06 10:43:46;;;;;;;18.98;4.65;;;31.20;93.00;;;;;;5111671;28;20081;-56
2021/09/06 10:46:14;;;;;;;23.20;5.32;;;31.20;93.30;;;;;;5116149;27;20555;-56
2021/09/06 10:48:40;;;;;;;18.73;4.90;;;31.20;93.30;;;;;;5116041;27;20091;-57
2021/09/06 10:51:07;;;;;;;13.43;4.35;;;31.20;93.60;;;;;;5119297;27;20217;-56
2021/09/06 10:53:34;;;;;;;17.48;4.75;;;31.10;94.30;;;;;;5118237;27;20556;-57
2021/09/06 10:56:00;;;;;;;26.05;4.97;;;31.10;94.70;;;;;;5116982;27;20104;-56
2021/09/06 10:58:29;;;;;;;20.77;5.22;;;31.10;95.40;;;;;;5119725;27;20076;-57
2021/09/06 11:01:02;;;;;;;22.42;5.07;;;31.00;96.40;;;;;;5119930;27;20162;-56
2021/09/06 11:03:38;;;;;;;28.45;6.15;;;30.90;97.70;;;;;;5114503;27;20511;-57
2021/09/06 11:06:05;;;;;;;22.65;6.10;;;30.90;98.60;;;;;;5116409;27;20093;-57
2021/09/06 11:08:34;;;;;;;21.05;5.80;;;30.90;99.40;;;;;;5119825;27;20080;-53
2021/09/06 11:11:04;;;;;;;29.40;6.78;;;30.90;99.70;;;;;;5116172;27;20072;-57
2021/09/06 11:13:38;;;;;;;27.88;6.38;;;30.80;99.90;;;;;;5118782;27;20135;-58
2021/09/06 11:16:07;;;;;;;32.30;7.13;;;30.80;99.90;;;;;;5116730;27;20133;-55
2021/09/06 11:18:35;;;;;;;24.90;6.43;;;30.90;99.90;;;;;;5117264;27;20087;-57
2021/09/06 11:21:03;;;;;;;32.63;7.63;;;30.80;99.90;;;;;;5118539;27;20500;-58
2021/09/06 11:23:42;;;;;;;34.58;7.00;;;30.80;99.90;;;;;;5120700;27;20166;-57
2021/09/06 11:26:21;;;;;;;26.25;6.38;;;30.80;99.90;;;;;;5114678;27;20497;-57
2021/09/06 11:28:48;;;;;;;30.95;7.90;;;30.70;99.90;;;;;;5116715;27;20071;-57
2021/09/06 11:31:19;;;;;;;29.60;7.07;;;30.70;99.90;;;;;;5115964;27;20080;-56
2021/09/06 11:33:46;;;;;;;31.25;6.88;;;30.70;99.90;;;;;;5116737;27;20180;-56
2021/09/06 11:36:17;;;;;;;24.70;6.30;;;30.70;99.90;;;;;;5115152;27;20465;-54
2021/09/06 11:38:44;;;;;;;30.10;6.65;;;30.60;99.90;;;;;;5113956;27;20064;-57
2021/09/06 11:41:10;;;;;;;31.75;6.68;;;30.60;99.90;;;;;;5117072;27;20105;-55
2021/09/06 11:43:37;;;;;;;31.98;7.53;;;30.50;99.90;;;;;;5113914;27;20073;-57
2021/09/06 11:46:04;;;;;;;35.95;7.35;;;30.50;99.90;;;;;;5112701;27;20080;-55
2021/09/06 11:48:41;;;;;;;33.28;7.28;;;30.50;99.90;;;;;;5120794;27;20524;-57
2021/09/06 11:51:09;;;;;;;27.13;6.85;;;30.50;99.90;;;;;;5112901;27;20107;-57
2021/09/06 11:53:36;;;;;;;36.38;7.30;;;30.50;99.90;;;;;;5122765;27;20211;-58
2021/09/06 11:56:03;;;;;;;30.40;7.35;;;30.50;99.90;;;;;;5116366;27;20183;-57
2021/09/06 11:58:30;;;;;;;32.13;7.68;;;30.40;99.90;;;;;;5115381;27;20075;-57
2021/09/06 12:01:09;;;;;;;26.13;6.30;;;30.40;99.90;;;;;;5103836;27;20084;-55
2021/09/06 12:03:36;;;;;;;32.33;6.45;;;30.30;99.90;;;;;;5113124;27;20072;-58
2021/09/06 12:06:05;;;;;;;32.05;7.00;;;30.40;99.90;;;;;;5116519;27;20076;-56
2021/09/06 12:08:32;;;;;;;35.72;7.43;;;30.30;99.90;;;;;;5115401;27;20427;-56
2021/09/06 12:11:10;;;;;;;30.70;6.55;;;30.40;99.90;;;;;;5118223;27;20080;-57
2021/09/06 12:13:39;;;;;;;30.80;6.63;;;30.30;99.90;;;;;;5117288;27;20159;-56
2021/09/06 12:16:11;;;;;;;32.58;6.68;;;30.30;99.90;;;;;;5115031;27;20176;-57
2021/09/06 12:18:38;;;;;;;30.08;5.85;;;30.30;99.90;;;;;;5116170;27;20155;-57
2021/09/06 12:21:08;;;;;;;26.38;6.18;;;30.30;99.90;;;;;;5117532;27;20084;-55
2021/09/06 12:23:38;;;;;;;25.80;5.57;;;30.30;99.90;;;;;;5115321;27;20072;-56
2021/09/06 12:26:06;;;;;;;29.88;6.40;;;30.30;99.90;;;;;;5092375;27;20517;-56
2021/09/06 12:28:33;;;;;;;20.92;5.60;;;30.40;99.90;;;;;;5113566;27;20079;-54
2021/09/06 12:31:05;;;;;;;23.80;5.90;;;30.20;99.90;;;;;;5099936;27;20072;-56
2021/09/06 12:33:32;;;;;;;26.60;5.03;;;30.30;99.90;;;;;;5116996;27;20115;-56
2021/09/06 12:36:03;;;;;;;31.70;6.25;;;30.30;99.90;;;;;;5114514;27;20095;-56
2021/09/06 12:38:31;;;;;;;28.77;6.07;;;30.30;99.90;;;;;;5112517;27;20080;-55
2021/09/06 12:40:58;;;;;;;23.30;5.75;;;30.20;99.90;;;;;;5115212;27;20122;-57